sensor_id;sensor_type;location;lat;lon;timestamp;temperature;humidity
22645;DHT22;11489;50.834;6.752;2022-10-28T00:02:17;17.40;87.80
22645;DHT22;11489;50.834;6.752;2022-10-28T00:04:43;17.50;87.80
22645;DHT22;11489;50.834;6.752;2022-10-28T00:07:08;17.50;87.70
22645;DHT22;11489;50.834;6.752;2022-10-28T00:09:34;17.60;87.60
22645;DHT22;11489;50.834;6.752;2022-10-28T00:12:00;17.70;87.60
22645;DHT22;11489;50.834;6.752;2022-10-28T00:14:25;17.70;87.60
22645;DHT22;11489;50.834;6.752;2022-10-28T00:16:51;17.80;87.50
22645;DHT22;11489;50.834;6.752;2022-10-28T00:19:17;17.90;87.50
22645;DHT22;11489;50.834;6.752;2022-10-28T00:21:43;18.00;87.40
22645;DHT22;11489;50.834;6.752;2022-10-28T00:24:11;18.00;87.30
22645;DHT22;11489;50.834;6.752;2022-10-28T00:26:38;18.10;87.10
22645;DHT22;11489;50.834;6.752;2022-10-28T00:29:09;18.20;87.00
22645;DHT22;11489;50.834;6.752;2022-10-28T00:31:36;18.30;86.80
22645;DHT22;11489;50.834;6.752;2022-10-28T00:34:04;18.30;86.60
22645;DHT22;11489;50.834;6.752;2022-10-28T00:36:41;18.40;86.30
22645;DHT22;11489;50.834;6.752;2022-10-28T00:39:14;18.50;85.30
22645;DHT22;11489;50.834;6.752;2022-10-28T00:41:47;18.50;85.60
22645;DHT22;11489;50.834;6.752;2022-10-28T00:49:50;18.40;85.20
22645;DHT22;11489;50.834;6.752;2022-10-28T00:52:20;18.40;85.20
22645;DHT22;11489;50.834;6.752;2022-10-28T00:54:48;18.30;85.10
22645;DHT22;11489;50.834;6.752;2022-10-28T00:57:17;18.30;85.50
22645;DHT22;11489;50.834;6.752;2022-10-28T00:59:47;18.30;85.50
22645;DHT22;11489;50.834;6.752;2022-10-28T01:02:14;18.30;85.50
22645;DHT22;11489;50.834;6.752;2022-10-28T01:04:40;18.30;85.70
22645;DHT22;11489;50.834;6.752;2022-10-28T01:07:06;18.30;85.70
22645;DHT22;11489;50.834;6.752;2022-10-28T01:09:32;18.30;85.80
22645;DHT22;11489;50.834;6.752;2022-10-28T01:15:04;18.40;84.60
22645;DHT22;11489;50.834;6.752;2022-10-28T01:23:05;18.50;84.60
22645;DHT22;11489;50.834;6.752;2022-10-28T01:25:49;18.50;85.50
22645;DHT22;11489;50.834;6.752;2022-10-28T01:39:10;18.60;84.30
22645;DHT22;11489;50.834;6.752;2022-10-28T01:41:46;18.60;84.20
22645;DHT22;11489;50.834;6.752;2022-10-28T01:44:26;18.60;84.40
22645;DHT22;11489;50.834;6.752;2022-10-28T01:47:04;18.60;84.10
22645;DHT22;11489;50.834;6.752;2022-10-28T01:49:40;18.60;84.30
22645;DHT22;11489;50.834;6.752;2022-10-28T01:52:12;18.60;84.40
22645;DHT22;11489;50.834;6.752;2022-10-28T01:54:40;18.60;84.50
22645;DHT22;11489;50.834;6.752;2022-10-28T01:57:08;18.50;84.40
22645;DHT22;11489;50.834;6.752;2022-10-28T01:59:37;18.50;84.30
22645;DHT22;11489;50.834;6.752;2022-10-28T02:02:04;18.50;84.10
22645;DHT22;11489;50.834;6.752;2022-10-28T02:04:29;18.50;84.00
22645;DHT22;11489;50.834;6.752;2022-10-28T02:06:57;18.40;84.00
22645;DHT22;11489;50.834;6.752;2022-10-28T02:12:47;18.30;83.20
22645;DHT22;11489;50.834;6.752;2022-10-28T02:15:18;18.20;83.80
22645;DHT22;11489;50.834;6.752;2022-10-28T02:22:56;18.00;83.70
22645;DHT22;11489;50.834;6.752;2022-10-28T02:25:51;17.90;83.60
22645;DHT22;11489;50.834;6.752;2022-10-28T02:28:40;17.80;83.40
22645;DHT22;11489;50.834;6.752;2022-10-28T02:31:49;17.70;83.90
22645;DHT22;11489;50.834;6.752;2022-10-28T02:34:24;17.60;83.80
22645;DHT22;11489;50.834;6.752;2022-10-28T02:36:53;17.50;84.30
22645;DHT22;11489;50.834;6.752;2022-10-28T02:39:26;17.40;84.50
22645;DHT22;11489;50.834;6.752;2022-10-28T02:41:58;17.30;84.40
22645;DHT22;11489;50.834;6.752;2022-10-28T02:44:30;17.30;84.60
22645;DHT22;11489;50.834;6.752;2022-10-28T02:47:00;17.20;84.90
22645;DHT22;11489;50.834;6.752;2022-10-28T02:49:27;17.20;85.10
22645;DHT22;11489;50.834;6.752;2022-10-28T02:52:01;17.10;85.30
22645;DHT22;11489;50.834;6.752;2022-10-28T02:57:17;17.10;85.30
22645;DHT22;11489;50.834;6.752;2022-10-28T02:59:55;17.00;85.70
22645;DHT22;11489;50.834;6.752;2022-10-28T03:02:22;17.00;85.80
22645;DHT22;11489;50.834;6.752;2022-10-28T03:04:47;17.10;86.20
22645;DHT22;11489;50.834;6.752;2022-10-28T03:07:13;17.00;86.20
22645;DHT22;11489;50.834;6.752;2022-10-28T03:09:39;17.10;86.40
22645;DHT22;11489;50.834;6.752;2022-10-28T03:12:04;17.10;86.50
22645;DHT22;11489;50.834;6.752;2022-10-28T03:14:30;17.10;86.60
22645;DHT22;11489;50.834;6.752;2022-10-28T03:16:56;17.10;86.50
22645;DHT22;11489;50.834;6.752;2022-10-28T03:19:21;17.20;86.40
22645;DHT22;11489;50.834;6.752;2022-10-28T03:21:47;17.20;86.30
22645;DHT22;11489;50.834;6.752;2022-10-28T03:24:13;17.20;86.20
22645;DHT22;11489;50.834;6.752;2022-10-28T03:26:38;17.20;86.10
22645;DHT22;11489;50.834;6.752;2022-10-28T03:29:04;17.20;86.00
22645;DHT22;11489;50.834;6.752;2022-10-28T03:31:30;17.20;86.00
22645;DHT22;11489;50.834;6.752;2022-10-28T03:33:55;17.20;85.90
22645;DHT22;11489;50.834;6.752;2022-10-28T03:36:21;17.20;85.80
22645;DHT22;11489;50.834;6.752;2022-10-28T03:38:47;17.10;85.60
22645;DHT22;11489;50.834;6.752;2022-10-28T03:41:12;17.10;85.50
22645;DHT22;11489;50.834;6.752;2022-10-28T03:43:38;17.10;85.50
22645;DHT22;11489;50.834;6.752;2022-10-28T03:46:04;17.00;85.60
22645;DHT22;11489;50.834;6.752;2022-10-28T03:48:29;17.00;85.90
22645;DHT22;11489;50.834;6.752;2022-10-28T03:50:55;17.00;86.20
22645;DHT22;11489;50.834;6.752;2022-10-28T03:53:21;17.00;86.30
22645;DHT22;11489;50.834;6.752;2022-10-28T03:55:52;17.00;86.30
22645;DHT22;11489;50.834;6.752;2022-10-28T03:58:17;17.00;86.30
22645;DHT22;11489;50.834;6.752;2022-10-28T04:00:43;16.90;86.30
22645;DHT22;11489;50.834;6.752;2022-10-28T04:03:09;16.90;86.20
22645;DHT22;11489;50.834;6.752;2022-10-28T04:05:34;16.90;86.10
22645;DHT22;11489;50.834;6.752;2022-10-28T04:08:00;16.90;86.10
22645;DHT22;11489;50.834;6.752;2022-10-28T04:10:26;16.90;86.10
22645;DHT22;11489;50.834;6.752;2022-10-28T04:12:51;16.80;86.10
22645;DHT22;11489;50.834;6.752;2022-10-28T04:15:17;16.80;86.10
22645;DHT22;11489;50.834;6.752;2022-10-28T04:17:43;16.80;86.20
22645;DHT22;11489;50.834;6.752;2022-10-28T04:20:08;16.80;86.20
22645;DHT22;11489;50.834;6.752;2022-10-28T04:22:34;16.70;86.20
22645;DHT22;11489;50.834;6.752;2022-10-28T04:25:00;16.70;86.40
22645;DHT22;11489;50.834;6.752;2022-10-28T04:27:25;16.70;86.50
22645;DHT22;11489;50.834;6.752;2022-10-28T04:29:51;16.70;86.50
22645;DHT22;11489;50.834;6.752;2022-10-28T04:32:16;16.60;86.40
22645;DHT22;11489;50.834;6.752;2022-10-28T04:34:42;16.60;86.40
22645;DHT22;11489;50.834;6.752;2022-10-28T04:37:08;16.50;86.30
22645;DHT22;11489;50.834;6.752;2022-10-28T04:39:33;16.50;86.30
22645;DHT22;11489;50.834;6.752;2022-10-28T04:41:59;16.50;86.40
22645;DHT22;11489;50.834;6.752;2022-10-28T04:44:25;16.40;86.70
22645;DHT22;11489;50.834;6.752;2022-10-28T04:46:50;16.40;86.90
22645;DHT22;11489;50.834;6.752;2022-10-28T04:49:16;16.40;87.10
22645;DHT22;11489;50.834;6.752;2022-10-28T04:51:41;16.40;87.20
22645;DHT22;11489;50.834;6.752;2022-10-28T04:54:07;16.40;87.20
22645;DHT22;11489;50.834;6.752;2022-10-28T04:56:33;16.40;87.20
22645;DHT22;11489;50.834;6.752;2022-10-28T04:58:58;16.40;87.20
22645;DHT22;11489;50.834;6.752;2022-10-28T05:01:24;16.40;87.30
22645;DHT22;11489;50.834;6.752;2022-10-28T05:03:50;16.40;87.40
22645;DHT22;11489;50.834;6.752;2022-10-28T05:06:15;16.40;87.40
22645;DHT22;11489;50.834;6.752;2022-10-28T05:08:41;16.40;87.50
22645;DHT22;11489;50.834;6.752;2022-10-28T05:11:06;16.30;87.40
22645;DHT22;11489;50.834;6.752;2022-10-28T05:13:32;16.30;87.50
22645;DHT22;11489;50.834;6.752;2022-10-28T05:15:58;16.40;87.70
22645;DHT22;11489;50.834;6.752;2022-10-28T05:18:23;16.40;87.80
22645;DHT22;11489;50.834;6.752;2022-10-28T05:20:49;16.40;87.90
22645;DHT22;11489;50.834;6.752;2022-10-28T05:23:20;16.40;88.10
22645;DHT22;11489;50.834;6.752;2022-10-28T05:25:46;16.40;88.20
22645;DHT22;11489;50.834;6.752;2022-10-28T05:28:11;16.50;88.30
22645;DHT22;11489;50.834;6.752;2022-10-28T05:30:37;16.50;88.20
22645;DHT22;11489;50.834;6.752;2022-10-28T05:33:03;16.60;88.00
22645;DHT22;11489;50.834;6.752;2022-10-28T05:35:30;16.60;87.80
22645;DHT22;11489;50.834;6.752;2022-10-28T05:37:56;16.60;87.60
22645;DHT22;11489;50.834;6.752;2022-10-28T05:40:22;16.70;87.50
22645;DHT22;11489;50.834;6.752;2022-10-28T05:42:48;16.70;87.50
22645;DHT22;11489;50.834;6.752;2022-10-28T05:45:14;16.70;87.50
22645;DHT22;11489;50.834;6.752;2022-10-28T05:47:47;16.70;87.50
22645;DHT22;11489;50.834;6.752;2022-10-28T05:50:14;16.70;87.40
22645;DHT22;11489;50.834;6.752;2022-10-28T05:52:48;16.70;87.60
22645;DHT22;11489;50.834;6.752;2022-10-28T05:55:15;16.70;87.40
22645;DHT22;11489;50.834;6.752;2022-10-28T05:57:44;16.70;87.60
22645;DHT22;11489;50.834;6.752;2022-10-28T06:00:11;16.80;87.80
22645;DHT22;11489;50.834;6.752;2022-10-28T06:02:37;16.80;87.90
22645;DHT22;11489;50.834;6.752;2022-10-28T06:05:02;16.80;87.90
22645;DHT22;11489;50.834;6.752;2022-10-28T06:07:28;16.80;87.80
22645;DHT22;11489;50.834;6.752;2022-10-28T06:09:54;16.90;87.80
22645;DHT22;11489;50.834;6.752;2022-10-28T06:12:20;16.90;87.70
22645;DHT22;11489;50.834;6.752;2022-10-28T06:14:45;17.00;87.60
22645;DHT22;11489;50.834;6.752;2022-10-28T06:17:11;17.00;87.40
22645;DHT22;11489;50.834;6.752;2022-10-28T06:19:37;17.10;87.40
22645;DHT22;11489;50.834;6.752;2022-10-28T06:22:02;17.10;87.20
22645;DHT22;11489;50.834;6.752;2022-10-28T06:24:28;17.10;87.10
22645;DHT22;11489;50.834;6.752;2022-10-28T06:26:53;17.10;87.10
22645;DHT22;11489;50.834;6.752;2022-10-28T06:29:19;17.20;87.10
22645;DHT22;11489;50.834;6.752;2022-10-28T06:31:45;17.20;87.00
22645;DHT22;11489;50.834;6.752;2022-10-28T06:34:11;17.20;87.00
22645;DHT22;11489;50.834;6.752;2022-10-28T06:36:37;17.20;87.00
22645;DHT22;11489;50.834;6.752;2022-10-28T06:39:04;17.20;86.90
22645;DHT22;11489;50.834;6.752;2022-10-28T06:41:29;17.20;86.80
22645;DHT22;11489;50.834;6.752;2022-10-28T06:43:55;17.30;86.80
22645;DHT22;11489;50.834;6.752;2022-10-28T06:46:21;17.30;86.70
22645;DHT22;11489;50.834;6.752;2022-10-28T06:48:47;17.30;86.80
22645;DHT22;11489;50.834;6.752;2022-10-28T06:51:12;17.30;86.80
22645;DHT22;11489;50.834;6.752;2022-10-28T06:53:38;17.30;86.70
22645;DHT22;11489;50.834;6.752;2022-10-28T06:56:04;17.30;86.50
22645;DHT22;11489;50.834;6.752;2022-10-28T06:58:30;17.30;86.40
22645;DHT22;11489;50.834;6.752;2022-10-28T07:00:55;17.30;86.30
22645;DHT22;11489;50.834;6.752;2022-10-28T07:03:21;17.30;86.20
22645;DHT22;11489;50.834;6.752;2022-10-28T07:05:48;17.30;86.10
22645;DHT22;11489;50.834;6.752;2022-10-28T07:08:14;17.30;86.20
22645;DHT22;11489;50.834;6.752;2022-10-28T07:10:41;17.20;86.20
22645;DHT22;11489;50.834;6.752;2022-10-28T07:13:07;17.20;86.20
22645;DHT22;11489;50.834;6.752;2022-10-28T07:15:32;17.20;86.20
22645;DHT22;11489;50.834;6.752;2022-10-28T07:17:58;17.20;86.30
22645;DHT22;11489;50.834;6.752;2022-10-28T07:20:26;17.10;86.20
22645;DHT22;11489;50.834;6.752;2022-10-28T07:22:59;17.10;86.20
22645;DHT22;11489;50.834;6.752;2022-10-28T07:25:26;17.10;86.00
22645;DHT22;11489;50.834;6.752;2022-10-28T07:27:52;17.10;86.30
22645;DHT22;11489;50.834;6.752;2022-10-28T07:30:18;17.00;86.30
22645;DHT22;11489;50.834;6.752;2022-10-28T07:32:44;17.00;86.40
22645;DHT22;11489;50.834;6.752;2022-10-28T07:35:10;17.00;86.70
22645;DHT22;11489;50.834;6.752;2022-10-28T07:37:37;17.00;86.90
22645;DHT22;11489;50.834;6.752;2022-10-28T07:40:03;17.00;87.00
22645;DHT22;11489;50.834;6.752;2022-10-28T07:42:29;17.10;87.40
22645;DHT22;11489;50.834;6.752;2022-10-28T07:44:55;17.10;87.40
22645;DHT22;11489;50.834;6.752;2022-10-28T07:47:20;17.20;87.60
22645;DHT22;11489;50.834;6.752;2022-10-28T07:49:46;17.30;87.70
22645;DHT22;11489;50.834;6.752;2022-10-28T07:52:12;17.30;87.70
22645;DHT22;11489;50.834;6.752;2022-10-28T07:54:37;17.40;87.70
22645;DHT22;11489;50.834;6.752;2022-10-28T07:57:03;17.50;87.80
22645;DHT22;11489;50.834;6.752;2022-10-28T07:59:29;17.60;87.80
22645;DHT22;11489;50.834;6.752;2022-10-28T08:01:54;17.60;87.70
22645;DHT22;11489;50.834;6.752;2022-10-28T08:04:20;17.70;87.70
22645;DHT22;11489;50.834;6.752;2022-10-28T08:06:46;17.80;87.60
22645;DHT22;11489;50.834;6.752;2022-10-28T08:09:11;17.90;87.50
22645;DHT22;11489;50.834;6.752;2022-10-28T08:11:37;18.00;87.40
22645;DHT22;11489;50.834;6.752;2022-10-28T08:14:03;18.10;87.20
22645;DHT22;11489;50.834;6.752;2022-10-28T08:16:29;18.20;87.10
22645;DHT22;11489;50.834;6.752;2022-10-28T08:18:55;18.30;86.90
22645;DHT22;11489;50.834;6.752;2022-10-28T08:21:22;18.30;86.60
22645;DHT22;11489;50.834;6.752;2022-10-28T08:23:48;18.50;86.50
22645;DHT22;11489;50.834;6.752;2022-10-28T08:26:15;18.50;86.30
22645;DHT22;11489;50.834;6.752;2022-10-28T08:28:41;18.60;86.10
22645;DHT22;11489;50.834;6.752;2022-10-28T08:31:07;18.60;86.00
22645;DHT22;11489;50.834;6.752;2022-10-28T08:33:43;18.70;85.90
22645;DHT22;11489;50.834;6.752;2022-10-28T08:36:12;18.70;85.00
22645;DHT22;11489;50.834;6.752;2022-10-28T08:38:38;18.80;85.90
22645;DHT22;11489;50.834;6.752;2022-10-28T08:41:16;18.80;86.00
22645;DHT22;11489;50.834;6.752;2022-10-28T08:49:20;19.10;86.10
22645;DHT22;11489;50.834;6.752;2022-10-28T08:55:16;19.40;85.20
22645;DHT22;11489;50.834;6.752;2022-10-28T08:57:48;19.60;86.00
22645;DHT22;11489;50.834;6.752;2022-10-28T09:00:24;19.70;85.90
22645;DHT22;11489;50.834;6.752;2022-10-28T09:02:56;19.80;85.00
22645;DHT22;11489;50.834;6.752;2022-10-28T09:05:26;20.00;85.40
22645;DHT22;11489;50.834;6.752;2022-10-28T09:07:52;20.10;85.50
22645;DHT22;11489;50.834;6.752;2022-10-28T09:10:43;20.30;85.30
22645;DHT22;11489;50.834;6.752;2022-10-28T09:13:16;20.50;84.00
22645;DHT22;11489;50.834;6.752;2022-10-28T09:16:05;20.60;84.80
22645;DHT22;11489;50.834;6.752;2022-10-28T09:18:57;20.80;84.00
22645;DHT22;11489;50.834;6.752;2022-10-28T09:21:45;21.00;82.00
22645;DHT22;11489;50.834;6.752;2022-10-28T09:27:23;21.20;82.20
22645;DHT22;11489;50.834;6.752;2022-10-28T09:30:03;21.30;81.20
22645;DHT22;11489;50.834;6.752;2022-10-28T09:32:46;21.40;82.80
22645;DHT22;11489;50.834;6.752;2022-10-28T09:35:16;21.60;82.90
22645;DHT22;11489;50.834;6.752;2022-10-28T09:37:48;21.80;83.70
22645;DHT22;11489;50.834;6.752;2022-10-28T09:40:20;22.00;82.90
22645;DHT22;11489;50.834;6.752;2022-10-28T09:45:46;22.40;80.20
22645;DHT22;11489;50.834;6.752;2022-10-28T09:50:38;22.70;81.70
22645;DHT22;11489;50.834;6.752;2022-10-28T09:53:15;22.90;81.60
22645;DHT22;11489;50.834;6.752;2022-10-28T09:55:43;23.10;80.40
22645;DHT22;11489;50.834;6.752;2022-10-28T09:58:11;23.40;81.70
22645;DHT22;11489;50.834;6.752;2022-10-28T10:00:37;23.60;81.10
22645;DHT22;11489;50.834;6.752;2022-10-28T10:03:03;23.90;81.10
22645;DHT22;11489;50.834;6.752;2022-10-28T10:05:32;24.20;80.40
22645;DHT22;11489;50.834;6.752;2022-10-28T10:08:03;24.50;78.80
22645;DHT22;11489;50.834;6.752;2022-10-28T10:13:26;24.90;74.60
22645;DHT22;11489;50.834;6.752;2022-10-28T10:15:59;25.00;75.40
22645;DHT22;11489;50.834;6.752;2022-10-28T10:18:31;25.00;74.40
22645;DHT22;11489;50.834;6.752;2022-10-28T10:21:00;25.10;74.90
22645;DHT22;11489;50.834;6.752;2022-10-28T10:23:29;25.10;75.40
22645;DHT22;11489;50.834;6.752;2022-10-28T10:26:02;25.10;75.10
22645;DHT22;11489;50.834;6.752;2022-10-28T10:28:28;25.10;75.00
22645;DHT22;11489;50.834;6.752;2022-10-28T10:31:00;25.10;75.30
22645;DHT22;11489;50.834;6.752;2022-10-28T10:33:31;25.20;73.80
22645;DHT22;11489;50.834;6.752;2022-10-28T10:36:02;25.20;73.60
22645;DHT22;11489;50.834;6.752;2022-10-28T10:38:29;25.20;73.00
22645;DHT22;11489;50.834;6.752;2022-10-28T10:40:56;25.20;73.20
22645;DHT22;11489;50.834;6.752;2022-10-28T10:43:32;25.10;72.80
22645;DHT22;11489;50.834;6.752;2022-10-28T10:48:36;25.00;71.60
22645;DHT22;11489;50.834;6.752;2022-10-28T10:53:33;24.90;71.80
22645;DHT22;11489;50.834;6.752;2022-10-28T10:56:07;24.90;73.10
22645;DHT22;11489;50.834;6.752;2022-10-28T10:58:39;25.00;72.20
22645;DHT22;11489;50.834;6.752;2022-10-28T11:01:06;25.10;73.40
22645;DHT22;11489;50.834;6.752;2022-10-28T11:03:36;25.30;73.40
22645;DHT22;11489;50.834;6.752;2022-10-28T11:06:05;25.40;73.40
22645;DHT22;11489;50.834;6.752;2022-10-28T11:08:37;25.60;73.00
22645;DHT22;11489;50.834;6.752;2022-10-28T11:11:18;25.80;71.60
22645;DHT22;11489;50.834;6.752;2022-10-28T11:13:45;26.00;69.70
22645;DHT22;11489;50.834;6.752;2022-10-28T11:16:22;26.20;72.20
22645;DHT22;11489;50.834;6.752;2022-10-28T11:18:52;26.30;69.10
22645;DHT22;11489;50.834;6.752;2022-10-28T11:21:46;26.40;69.80
22645;DHT22;11489;50.834;6.752;2022-10-28T11:30:14;26.40;65.50
22645;DHT22;11489;50.834;6.752;2022-10-28T11:35:27;26.10;67.30
22645;DHT22;11489;50.834;6.752;2022-10-28T11:38:07;26.00;65.30
22645;DHT22;11489;50.834;6.752;2022-10-28T11:41:00;25.90;65.90
22645;DHT22;11489;50.834;6.752;2022-10-28T11:43:48;25.90;66.00
22645;DHT22;11489;50.834;6.752;2022-10-28T11:46:48;25.90;67.00
22645;DHT22;11489;50.834;6.752;2022-10-28T11:52:21;26.10;66.00
22645;DHT22;11489;50.834;6.752;2022-10-28T12:00:26;26.30;65.20
22645;DHT22;11489;50.834;6.752;2022-10-28T12:03:11;26.40;64.90
22645;DHT22;11489;50.834;6.752;2022-10-28T12:05:46;26.40;66.20
22645;DHT22;11489;50.834;6.752;2022-10-28T12:08:45;26.50;66.70
22645;DHT22;11489;50.834;6.752;2022-10-28T12:11:34;26.60;64.20
22645;DHT22;11489;50.834;6.752;2022-10-28T12:14:21;26.70;65.70
22645;DHT22;11489;50.834;6.752;2022-10-28T12:16:57;26.80;65.00
22645;DHT22;11489;50.834;6.752;2022-10-28T12:19:38;26.80;65.20
22645;DHT22;11489;50.834;6.752;2022-10-28T12:22:39;26.90;65.60
22645;DHT22;11489;50.834;6.752;2022-10-28T12:25:08;26.90;63.90
22645;DHT22;11489;50.834;6.752;2022-10-28T12:27:40;26.90;64.20
22645;DHT22;11489;50.834;6.752;2022-10-28T12:30:16;26.90;64.80
22645;DHT22;11489;50.834;6.752;2022-10-28T12:32:48;26.90;63.30
22645;DHT22;11489;50.834;6.752;2022-10-28T12:35:23;26.90;64.50
22645;DHT22;11489;50.834;6.752;2022-10-28T12:38:10;27.00;63.50
22645;DHT22;11489;50.834;6.752;2022-10-28T12:40:48;27.00;62.10
22645;DHT22;11489;50.834;6.752;2022-10-28T12:43:22;27.00;62.90
22645;DHT22;11489;50.834;6.752;2022-10-28T12:45:51;27.10;63.40
22645;DHT22;11489;50.834;6.752;2022-10-28T12:48:43;27.10;63.90
22645;DHT22;11489;50.834;6.752;2022-10-28T12:51:22;27.10;61.30
22645;DHT22;11489;50.834;6.752;2022-10-28T12:54:02;27.10;61.80
22645;DHT22;11489;50.834;6.752;2022-10-28T12:56:35;27.10;61.90
22645;DHT22;11489;50.834;6.752;2022-10-28T13:02:15;27.00;60.60
22645;DHT22;11489;50.834;6.752;2022-10-28T13:04:42;26.90;62.00
22645;DHT22;11489;50.834;6.752;2022-10-28T13:07:21;26.80;63.40
22645;DHT22;11489;50.834;6.752;2022-10-28T13:10:29;26.80;61.80
22645;DHT22;11489;50.834;6.752;2022-10-28T13:21:13;26.40;61.20
22645;DHT22;11489;50.834;6.752;2022-10-28T13:23:56;26.30;60.30
22645;DHT22;11489;50.834;6.752;2022-10-28T13:26:26;26.20;60.90
22645;DHT22;11489;50.834;6.752;2022-10-28T13:28:56;26.20;62.30
22645;DHT22;11489;50.834;6.752;2022-10-28T13:31:35;26.10;62.20
22645;DHT22;11489;50.834;6.752;2022-10-28T13:34:01;26.00;60.00
22645;DHT22;11489;50.834;6.752;2022-10-28T13:36:32;25.90;61.70
22645;DHT22;11489;50.834;6.752;2022-10-28T13:44:54;25.70;59.60
22645;DHT22;11489;50.834;6.752;2022-10-28T13:47:35;25.60;59.90
22645;DHT22;11489;50.834;6.752;2022-10-28T13:55:23;25.40;61.90
22645;DHT22;11489;50.834;6.752;2022-10-28T13:57:51;25.30;59.90
22645;DHT22;11489;50.834;6.752;2022-10-28T14:02:56;25.20;61.90
22645;DHT22;11489;50.834;6.752;2022-10-28T14:08:16;25.10;60.50
22645;DHT22;11489;50.834;6.752;2022-10-28T14:11:06;25.00;61.10
22645;DHT22;11489;50.834;6.752;2022-10-28T14:13:36;24.90;60.40
22645;DHT22;11489;50.834;6.752;2022-10-28T14:16:32;24.80;61.90
22645;DHT22;11489;50.834;6.752;2022-10-28T14:19:05;24.80;60.40
22645;DHT22;11489;50.834;6.752;2022-10-28T14:24:32;24.70;62.90
22645;DHT22;11489;50.834;6.752;2022-10-28T14:29:48;24.50;62.20
22645;DHT22;11489;50.834;6.752;2022-10-28T14:34:58;24.40;62.30
22645;DHT22;11489;50.834;6.752;2022-10-28T14:40:39;24.30;62.60
22645;DHT22;11489;50.834;6.752;2022-10-28T14:43:49;24.20;63.70
22645;DHT22;11489;50.834;6.752;2022-10-28T14:49:24;24.00;64.80
22645;DHT22;11489;50.834;6.752;2022-10-28T14:51:51;24.00;63.90
22645;DHT22;11489;50.834;6.752;2022-10-28T14:54:31;24.00;65.10
22645;DHT22;11489;50.834;6.752;2022-10-28T14:56:58;23.90;64.30
22645;DHT22;11489;50.834;6.752;2022-10-28T14:59:26;23.80;65.40
22645;DHT22;11489;50.834;6.752;2022-10-28T15:04:19;23.70;65.50
22645;DHT22;11489;50.834;6.752;2022-10-28T15:06:48;23.60;65.50
22645;DHT22;11489;50.834;6.752;2022-10-28T15:11:48;23.40;65.60
22645;DHT22;11489;50.834;6.752;2022-10-28T15:14:26;23.30;65.80
22645;DHT22;11489;50.834;6.752;2022-10-28T15:16:52;23.20;65.10
22645;DHT22;11489;50.834;6.752;2022-10-28T15:19:21;23.10;66.20
22645;DHT22;11489;50.834;6.752;2022-10-28T15:22:09;23.00;66.30
22645;DHT22;11489;50.834;6.752;2022-10-28T15:24:36;23.00;65.60
22645;DHT22;11489;50.834;6.752;2022-10-28T15:27:02;22.90;66.80
22645;DHT22;11489;50.834;6.752;2022-10-28T15:29:28;22.80;66.90
22645;DHT22;11489;50.834;6.752;2022-10-28T15:34:34;22.60;66.70
22645;DHT22;11489;50.834;6.752;2022-10-28T15:37:00;22.50;67.40
22645;DHT22;11489;50.834;6.752;2022-10-28T15:39:26;22.40;67.50
22645;DHT22;11489;50.834;6.752;2022-10-28T15:41:52;22.40;67.80
22645;DHT22;11489;50.834;6.752;2022-10-28T15:46:53;22.20;68.00
22645;DHT22;11489;50.834;6.752;2022-10-28T15:49:32;22.00;68.20
22645;DHT22;11489;50.834;6.752;2022-10-28T15:54:56;21.90;67.80
22645;DHT22;11489;50.834;6.752;2022-10-28T15:57:25;21.80;68.20
22645;DHT22;11489;50.834;6.752;2022-10-28T16:00:17;21.70;68.80
22645;DHT22;11489;50.834;6.752;2022-10-28T16:08:23;21.40;69.30
22645;DHT22;11489;50.834;6.752;2022-10-28T16:10:59;21.30;69.10
22645;DHT22;11489;50.834;6.752;2022-10-28T16:18:24;21.00;70.00
22645;DHT22;11489;50.834;6.752;2022-10-28T16:20:52;20.90;70.20
22645;DHT22;11489;50.834;6.752;2022-10-28T16:23:20;20.80;70.40
22645;DHT22;11489;50.834;6.752;2022-10-28T16:25:47;20.70;70.60
22645;DHT22;11489;50.834;6.752;2022-10-28T16:28:23;20.60;70.80
22645;DHT22;11489;50.834;6.752;2022-10-28T16:30:51;20.50;70.80
22645;DHT22;11489;50.834;6.752;2022-10-28T16:33:18;20.40;71.10
22645;DHT22;11489;50.834;6.752;2022-10-28T16:35:45;20.30;71.30
22645;DHT22;11489;50.834;6.752;2022-10-28T16:38:11;20.20;71.50
22645;DHT22;11489;50.834;6.752;2022-10-28T16:40:38;20.10;71.70
22645;DHT22;11489;50.834;6.752;2022-10-28T16:43:04;20.00;72.00
22645;DHT22;11489;50.834;6.752;2022-10-28T16:45:29;19.90;72.10
22645;DHT22;11489;50.834;6.752;2022-10-28T16:47:55;19.90;72.40
22645;DHT22;11489;50.834;6.752;2022-10-28T16:50:21;19.80;72.50
22645;DHT22;11489;50.834;6.752;2022-10-28T16:52:47;19.70;72.70
22645;DHT22;11489;50.834;6.752;2022-10-28T16:55:15;19.70;72.90
22645;DHT22;11489;50.834;6.752;2022-10-28T16:57:41;19.60;72.90
22645;DHT22;11489;50.834;6.752;2022-10-28T17:00:08;19.60;73.10
22645;DHT22;11489;50.834;6.752;2022-10-28T17:02:34;19.50;73.30
22645;DHT22;11489;50.834;6.752;2022-10-28T17:05:01;19.50;73.40
22645;DHT22;11489;50.834;6.752;2022-10-28T17:07:29;19.40;73.50
22645;DHT22;11489;50.834;6.752;2022-10-28T17:09:55;19.30;73.70
22645;DHT22;11489;50.834;6.752;2022-10-28T17:12:23;19.30;73.90
22645;DHT22;11489;50.834;6.752;2022-10-28T17:14:49;19.30;74.10
22645;DHT22;11489;50.834;6.752;2022-10-28T17:17:15;19.30;74.20
22645;DHT22;11489;50.834;6.752;2022-10-28T17:19:41;19.30;74.40
22645;DHT22;11489;50.834;6.752;2022-10-28T17:22:10;19.30;74.50
22645;DHT22;11489;50.834;6.752;2022-10-28T17:24:36;19.20;74.40
22645;DHT22;11489;50.834;6.752;2022-10-28T17:27:02;19.20;74.50
22645;DHT22;11489;50.834;6.752;2022-10-28T17:29:28;19.20;74.60
22645;DHT22;11489;50.834;6.752;2022-10-28T17:31:54;19.20;74.80
22645;DHT22;11489;50.834;6.752;2022-10-28T17:34:20;19.10;74.70
22645;DHT22;11489;50.834;6.752;2022-10-28T17:36:45;19.10;74.80
22645;DHT22;11489;50.834;6.752;2022-10-28T17:39:11;19.10;74.90
22645;DHT22;11489;50.834;6.752;2022-10-28T17:41:36;19.10;74.90
22645;DHT22;11489;50.834;6.752;2022-10-28T17:44:02;19.10;75.00
22645;DHT22;11489;50.834;6.752;2022-10-28T17:46:28;19.10;75.10
22645;DHT22;11489;50.834;6.752;2022-10-28T17:48:54;19.00;75.10
22645;DHT22;11489;50.834;6.752;2022-10-28T17:51:20;19.00;75.20
22645;DHT22;11489;50.834;6.752;2022-10-28T17:53:55;19.00;75.20
22645;DHT22;11489;50.834;6.752;2022-10-28T17:56:21;19.00;75.10
22645;DHT22;11489;50.834;6.752;2022-10-28T17:58:50;18.90;75.20
22645;DHT22;11489;50.834;6.752;2022-10-28T18:01:16;18.90;75.20
22645;DHT22;11489;50.834;6.752;2022-10-28T18:03:42;18.90;75.30
22645;DHT22;11489;50.834;6.752;2022-10-28T18:06:10;18.80;75.30
22645;DHT22;11489;50.834;6.752;2022-10-28T18:08:38;18.80;75.40
22645;DHT22;11489;50.834;6.752;2022-10-28T18:11:05;18.70;75.40
22645;DHT22;11489;50.834;6.752;2022-10-28T18:13:33;18.60;75.50